Rhodanus — PGBC — position and weather

sailwx.info

Track history (hours):
 
Tides and Currents Weather Stations Pressure Air Temp Water Temp Dewpoint Dewpoint Depression Visibility Wind Speed Wind Dir Waves Ship Positions

Rhodanus

Last reported at 2016-Jul-24 09:17 UTC. Time now 2016-Jul-26 02:33 UTC.
Position N 37°47' E 016°02'.

Length 89 m; draft 4.2 m.

Type: Ship. MMSI: 245848000.

Date/timePositionNaut miles runAvg speedWind from/ knotsBaromVisibWave heightAir tempDewpointWater temp
2016-Jul-24 09:17N 37°47' E 016°02'7 6.4
2016-Jul-24 08:09N 37°49' E 015°53'7 6.3
2016-Jul-24 07:06N 37°51' E 015°45'4 6.0
2016-Jul-24 06:30N 37°52' E 015°41'5 5.7
2016-Jul-24 05:33N 37°54' E 015°35'7 7.5
2016-Jul-24 04:33N 38°02' E 015°34'7 7.3
2016-Jul-24 03:34N 38°09' E 015°35'7 7.2
2016-Jul-24 02:33N 38°15' E 015°39'6 6.1
2016-Jul-24 01:33N 38°20' E 015°34'8 7.6
2016-Jul-24 00:33N 38°24' E 015°26'8 7.5
2016-Jul-23 23:32N 38°28' E 015°18'14 7.3
2016-Jul-23 21:33N 38°36' E 015°02'54 7.6
2016-Jul-23 14:23N 39°05' E 014°04'7 8.0
2016-Jul-23 13:34N 39°09' E 013°57'8 7.8
2016-Jul-23 12:33N 39°13' E 013°48'8 7.7
2016-Jul-23 11:34N 39°17' E 013°40'8 7.6
2016-Jul-23 10:34N 39°21' E 013°31'8 7.6
2016-Jul-23 09:33N 39°25' E 013°23'8 7.6
2016-Jul-23 08:33N 39°29' E 013°15'7 7.5
2016-Jul-23 07:33N 39°34' E 013°07'7 7.5
2016-Jul-23 06:33N 39°37' E 012°59'73 7.3
2016-Jul-22 20:32N 40°16' E 011°37'21 6.4
2016-Jul-22 17:18N 40°28' E 011°14'5 6.9
2016-Jul-22 16:33N 40°30' E 011°09'7 7.0
2016-Jul-22 15:34N 40°34' E 011°01'7 7.3
2016-Jul-22 14:33N 40°38' E 010°53'8 7.5
2016-Jul-22 13:31N 40°43' E 010°45'8 7.8
2016-Jul-22 12:33N 40°47' E 010°36'8 8.1
2016-Jul-22 11:33N 40°51' E 010°27'24 7.9
2016-Jul-22 08:32N 41°04' E 010°01'23 7.7
2016-Jul-22 05:33N 41°16' E 009°35'8 7.6
2016-Jul-22 04:33N 41°20' E 009°26'176 7.0
2016-Jul-21 03:31N 42°45' E 005°58'47 6.8
2016-Jul-20 20:33N 43°10' E 005°04'  
2016-Jul-16 16:33N 43°22' E 004°58'  
Track history (hours):
 
Tides and Currents Weather Stations Pressure Air Temp Water Temp Dewpoint Dewpoint Depression Visibility Wind Speed Wind Dir Waves Ship Positions

Rhodanus

Last reported at 2016-Jul-24 09:17 UTC. Time now 2016-Jul-26 02:33 UTC.
Position N 37°47' E 016°02'.

Length 89 m; draft 4.2 m.

Type: Ship. MMSI: 245848000.

Date/timePositionNaut miles runAvg speedWind from/ knotsBaromVisibWave heightAir tempDewpointWater temp
2016-Jul-24 09:17N 37°47' E 016°02'7 6.4
2016-Jul-24 08:09N 37°49' E 015°53'7 6.3
2016-Jul-24 07:06N 37°51' E 015°45'4 6.0
2016-Jul-24 06:30N 37°52' E 015°41'5 5.7
2016-Jul-24 05:33N 37°54' E 015°35'7 7.5
2016-Jul-24 04:33N 38°02' E 015°34'7 7.3
2016-Jul-24 03:34N 38°09' E 015°35'7 7.2
2016-Jul-24 02:33N 38°15' E 015°39'6 6.1
2016-Jul-24 01:33N 38°20' E 015°34'8 7.6
2016-Jul-24 00:33N 38°24' E 015°26'8 7.5
2016-Jul-23 23:32N 38°28' E 015°18'14 7.3
2016-Jul-23 21:33N 38°36' E 015°02'54 7.6
2016-Jul-23 14:23N 39°05' E 014°04'7 8.0
2016-Jul-23 13:34N 39°09' E 013°57'8 7.8
2016-Jul-23 12:33N 39°13' E 013°48'8 7.7
2016-Jul-23 11:34N 39°17' E 013°40'8 7.6
2016-Jul-23 10:34N 39°21' E 013°31'8 7.6
2016-Jul-23 09:33N 39°25' E 013°23'8 7.6
2016-Jul-23 08:33N 39°29' E 013°15'7 7.5
2016-Jul-23 07:33N 39°34' E 013°07'7 7.5
2016-Jul-23 06:33N 39°37' E 012°59'73 7.3
2016-Jul-22 20:32N 40°16' E 011°37'21 6.4
2016-Jul-22 17:18N 40°28' E 011°14'5 6.9
2016-Jul-22 16:33N 40°30' E 011°09'7 7.0
2016-Jul-22 15:34N 40°34' E 011°01'7 7.3
2016-Jul-22 14:33N 40°38' E 010°53'8 7.5
2016-Jul-22 13:31N 40°43' E 010°45'8 7.8
2016-Jul-22 12:33N 40°47' E 010°36'8 8.1
2016-Jul-22 11:33N 40°51' E 010°27'24 7.9
2016-Jul-22 08:32N 41°04' E 010°01'23 7.7
2016-Jul-22 05:33N 41°16' E 009°35'8 7.6
2016-Jul-22 04:33N 41°20' E 009°26'176 7.0
2016-Jul-21 03:31N 42°45' E 005°58'47 6.8
2016-Jul-20 20:33N 43°10' E 005°04'  
2016-Jul-16 16:33N 43°22' E 004°58'  

Dump ship's entire track history